createdAt,value
2022-09-22T00:00:27.294Z,25.90
2022-09-22T00:05:32.846Z,25.90
2022-09-22T00:10:38.455Z,25.90
2022-09-22T00:15:48.520Z,26.10
2022-09-22T00:20:53.776Z,26.20
2022-09-22T00:25:59.125Z,26.20
2022-09-22T00:31:11.411Z,26.10
2022-09-22T00:36:18.320Z,26.10
2022-09-22T00:41:31.497Z,26.10
2022-09-22T00:46:37.091Z,26.20
2022-09-22T00:51:45.492Z,26.40
2022-09-22T00:56:57.374Z,27.00
2022-09-22T01:02:04.832Z,27.40
2022-09-22T01:07:11.198Z,27.50
2022-09-22T01:12:16.830Z,28.10
2022-09-22T01:17:51.648Z,28.40
2022-09-22T01:23:28.455Z,28.40
2022-09-22T01:28:45.921Z,28.10
2022-09-22T01:33:51.987Z,28.10
2022-09-22T01:54:41.470Z,29.30
2022-09-22T01:59:53.611Z,29.40
2022-09-22T02:05:04.765Z,29.40
2022-09-22T02:10:14.884Z,29.30
2022-09-22T02:15:40.696Z,29.00
2022-09-22T02:20:47.094Z,28.70
2022-09-22T02:25:53.985Z,28.60
2022-09-22T02:31:20.422Z,28.60
2022-09-22T02:36:45.917Z,29.20
2022-09-22T02:42:11.156Z,30.90
2022-09-22T02:47:42.760Z,31.80
2022-09-22T02:52:48.295Z,31.70
2022-09-22T02:57:53.806Z,31.30
2022-09-22T03:02:59.211Z,30.90
2022-09-22T03:08:05.137Z,30.60
2022-09-22T03:13:16.481Z,30.40
2022-09-22T03:18:22.514Z,30.00
2022-09-22T03:23:28.575Z,29.80
2022-09-22T03:28:34.104Z,30.10
2022-09-22T03:33:40.325Z,29.80
2022-09-22T03:38:45.933Z,29.80
2022-09-22T03:43:52.316Z,30.40
2022-09-22T03:48:58.558Z,31.80
2022-09-22T03:54:04.942Z,32.30
2022-09-22T03:59:12.112Z,32.60
2022-09-22T04:04:17.782Z,32.80
2022-09-22T04:09:23.276Z,32.90
2022-09-22T04:14:28.963Z,32.90
2022-09-22T04:19:40.344Z,32.60
2022-09-22T04:24:46.135Z,32.60
2022-09-22T04:29:52.134Z,34.00
2022-09-22T04:34:57.821Z,33.70
2022-09-22T04:40:03.509Z,33.50
2022-09-22T04:45:09.732Z,33.80
2022-09-22T04:50:16.703Z,36.10
2022-09-22T04:55:23.884Z,34.90
2022-09-22T05:00:31.760Z,34.50
2022-09-22T05:05:37.496Z,35.00
2022-09-22T05:10:44.166Z,37.60
2022-09-22T05:15:49.815Z,38.30
2022-09-22T05:20:54.895Z,37.80
2022-09-22T05:26:00.467Z,36.40
2022-09-22T05:31:06.598Z,35.40
2022-09-22T05:36:12.457Z,37.40
2022-09-22T05:41:18.740Z,38.40
2022-09-22T05:46:24.496Z,36.80
2022-09-22T05:51:29.873Z,36.50
2022-09-22T05:56:36.597Z,37.40
2022-09-22T06:01:44.185Z,38.50
2022-09-22T06:07:15.438Z,39.20
2022-09-22T06:12:21.820Z,39.60
2022-09-22T06:17:27.351Z,40.50
2022-09-22T06:22:32.864Z,41.20
2022-09-22T06:27:38.731Z,41.10
2022-09-22T06:32:45.613Z,41.40
2022-09-22T06:37:58.471Z,39.80
2022-09-22T06:43:14.029Z,35.00
2022-09-22T06:48:21.051Z,31.60
2022-09-22T06:53:27.700Z,29.20
2022-09-22T06:58:52.359Z,27.50
2022-09-22T07:03:58.189Z,26.40
2022-09-22T07:09:03.435Z,25.60
2022-09-22T07:14:10.211Z,25.30
2022-09-22T07:19:17.044Z,25.40
2022-09-22T07:24:22.435Z,25.40
2022-09-22T07:29:27.574Z,25.50
2022-09-22T07:34:33.776Z,25.60
2022-09-22T07:39:39.515Z,26.00
2022-09-22T07:45:03.138Z,26.70
2022-09-22T07:50:09.241Z,28.60
2022-09-22T07:55:14.995Z,29.50
2022-09-22T08:00:20.876Z,30.30
2022-09-22T08:05:28.724Z,30.70
2022-09-22T08:10:37.434Z,31.30
2022-09-22T08:15:43.950Z,31.30
2022-09-22T08:20:49.475Z,31.10
2022-09-22T08:25:54.495Z,31.20
2022-09-22T08:31:01.731Z,31.20
2022-09-22T08:36:07.648Z,31.00
2022-09-22T08:41:27.097Z,31.30
2022-09-22T08:46:48.108Z,31.30
2022-09-22T08:52:05.693Z,31.20
2022-09-22T08:57:29.562Z,30.80
2022-09-22T09:02:57.322Z,30.40
2022-09-22T09:08:35.287Z,30.20
2022-09-22T09:14:23.904Z,30.10
2022-09-22T09:19:42.236Z,30.00
2022-09-22T09:25:27.811Z,29.90
2022-09-22T09:31:10.483Z,29.80
2022-09-22T09:36:25.600Z,29.90
2022-09-22T09:41:38.211Z,29.90
2022-09-22T09:47:19.087Z,29.80
2022-09-22T09:52:28.515Z,29.60
2022-09-22T09:57:34.976Z,29.40
2022-09-22T10:02:51.324Z,29.20
2022-09-22T10:08:00.788Z,29.00
2022-09-22T10:13:06.880Z,28.80
2022-09-22T10:18:41.814Z,28.70
2022-09-22T10:23:50.507Z,28.50
2022-09-22T10:29:14.411Z,28.40
2022-09-22T10:39:56.212Z,28.20
2022-09-22T10:45:18.138Z,27.90
2022-09-22T10:50:43.391Z,27.80
2022-09-22T10:56:18.963Z,27.60
2022-09-22T11:01:40.626Z,27.60
2022-09-22T11:07:47.552Z,27.60
2022-09-22T11:13:13.474Z,27.60
2022-09-22T11:18:39.653Z,27.40
2022-09-22T11:24:07.485Z,27.40
2022-09-22T11:29:31.831Z,27.30
2022-09-22T11:34:57.729Z,27.20
2022-09-22T11:40:09.441Z,27.20
2022-09-22T11:45:49.933Z,27.20
2022-09-22T11:51:04.067Z,27.00
2022-09-22T11:56:31.173Z,27.00
2022-09-22T12:01:41.977Z,26.90
2022-09-22T12:06:52.224Z,26.80
2022-09-22T12:12:00.630Z,26.80
2022-09-22T12:17:25.117Z,26.80
2022-09-22T12:22:54.991Z,26.70
2022-09-22T12:28:00.957Z,26.80
2022-09-22T12:33:06.937Z,26.70
2022-09-22T12:38:15.997Z,26.70
2022-09-22T12:43:25.924Z,26.60
2022-09-22T12:48:35.696Z,26.60
2022-09-22T12:53:43.791Z,26.60
2022-09-22T12:58:49.980Z,26.60
2022-09-22T13:04:05.112Z,26.60
2022-09-22T13:09:20.786Z,26.70
2022-09-22T13:15:00.198Z,26.70
2022-09-22T13:20:33.342Z,26.80
2022-09-22T13:25:39.442Z,26.80
2022-09-22T13:30:47.507Z,26.80
2022-09-22T13:36:22.632Z,26.90
2022-09-22T13:41:38.839Z,27.00
2022-09-22T13:46:47.825Z,26.80
2022-09-22T13:52:06.488Z,26.80
2022-09-22T13:57:26.232Z,26.80
2022-09-22T14:02:33.700Z,26.80
2022-09-22T14:07:55.192Z,26.80
2022-09-22T14:13:02.569Z,26.80
2022-09-22T14:18:21.171Z,26.80
2022-09-22T14:23:35.229Z,26.80
2022-09-22T14:28:45.970Z,26.80
2022-09-22T14:33:57.584Z,26.80
2022-09-22T14:39:09.962Z,26.70
2022-09-22T14:44:54.154Z,26.70
2022-09-22T14:50:29.827Z,26.80
2022-09-22T14:55:48.172Z,26.90
2022-09-22T15:01:19.958Z,26.90
2022-09-22T15:06:26.699Z,27.00
2022-09-22T15:11:52.780Z,27.00
2022-09-22T15:17:18.069Z,27.00
2022-09-22T15:22:25.758Z,26.90
2022-09-22T15:27:31.758Z,26.80
2022-09-22T15:32:39.081Z,26.80
2022-09-22T15:37:51.776Z,26.80
2022-09-22T15:43:12.211Z,26.80
2022-09-22T15:48:41.420Z,26.90
2022-09-22T15:53:47.150Z,27.00
2022-09-22T15:58:54.033Z,27.00
2022-09-22T16:04:01.778Z,27.00
2022-09-22T16:09:07.652Z,27.00
2022-09-22T16:14:13.519Z,27.00
2022-09-22T16:19:19.397Z,27.00
2022-09-22T16:24:27.185Z,26.90
2022-09-22T16:29:32.958Z,26.80
2022-09-22T16:34:39.197Z,26.70
2022-09-22T16:39:44.478Z,26.70
2022-09-22T16:44:50.038Z,26.60
2022-09-22T16:49:57.329Z,26.60
2022-09-22T16:55:03.438Z,26.60
2022-09-22T17:00:11.190Z,26.60
2022-09-22T17:05:16.927Z,26.60
2022-09-22T17:10:21.908Z,26.70
2022-09-22T17:15:27.684Z,26.60
2022-09-22T17:20:33.454Z,26.70
2022-09-22T17:25:39.783Z,26.70
2022-09-22T17:30:45.443Z,26.70
2022-09-22T17:35:50.729Z,26.70
2022-09-22T17:41:08.953Z,26.70
2022-09-22T17:46:19.324Z,26.70
2022-09-22T17:51:59.358Z,26.60
2022-09-22T17:57:04.700Z,26.60
2022-09-22T18:02:15.652Z,26.70
2022-09-22T18:07:26.600Z,26.60
2022-09-22T18:12:33.656Z,26.60
2022-09-22T18:17:43.090Z,26.60
2022-09-22T18:22:51.732Z,26.50
2022-09-22T18:27:58.023Z,26.50
2022-09-22T18:33:03.784Z,26.50
2022-09-22T18:38:09.269Z,26.50
2022-09-22T18:43:14.966Z,26.40
2022-09-22T18:48:20.582Z,26.30
2022-09-22T18:53:26.464Z,26.30
2022-09-22T18:58:31.576Z,26.40
2022-09-22T19:03:37.276Z,26.30
2022-09-22T19:08:43.269Z,26.40
2022-09-22T19:13:49.726Z,26.40
2022-09-22T19:18:55.385Z,26.40
2022-09-22T19:24:00.819Z,26.30
2022-09-22T19:29:07.767Z,26.30
2022-09-22T19:34:14.299Z,26.30
2022-09-22T19:39:19.868Z,26.40
2022-09-22T19:44:25.712Z,26.40
2022-09-22T19:49:31.707Z,26.40
2022-09-22T19:54:37.110Z,26.40
2022-09-22T19:59:42.813Z,26.40
2022-09-22T20:04:48.636Z,26.40
2022-09-22T20:09:53.946Z,26.50
2022-09-22T20:14:59.321Z,26.40
2022-09-22T20:20:05.122Z,26.50
2022-09-22T20:25:25.888Z,26.50
2022-09-22T20:30:31.423Z,26.50
2022-09-22T20:35:37.330Z,26.50
2022-09-22T20:40:43.401Z,26.40
2022-09-22T20:45:49.061Z,26.40
2022-09-22T20:51:02.735Z,26.40
2022-09-22T20:56:13.493Z,26.30
2022-09-22T21:01:20.039Z,26.30
2022-09-22T21:06:26.145Z,26.40
2022-09-22T21:11:32.454Z,26.40
2022-09-22T21:16:40.469Z,26.40
2022-09-22T21:21:46.222Z,26.40
2022-09-22T21:26:51.668Z,26.30
2022-09-22T21:31:57.999Z,26.30
2022-09-22T21:37:03.683Z,26.30
2022-09-22T21:42:09.282Z,26.20
2022-09-22T21:47:14.680Z,26.20
2022-09-22T21:52:19.952Z,26.10
2022-09-22T21:57:25.458Z,26.10
2022-09-22T22:02:50.667Z,26.10
2022-09-22T22:07:56.782Z,26.20
2022-09-22T22:13:05.191Z,26.20
2022-09-22T22:18:10.520Z,26.20
2022-09-22T22:23:16.147Z,26.20
2022-09-22T22:28:22.127Z,26.20
2022-09-22T22:33:27.460Z,26.20
2022-09-22T22:38:33.319Z,26.10
2022-09-22T22:43:39.755Z,26.00
2022-09-22T22:48:50.660Z,26.00
2022-09-22T22:53:59.693Z,26.00
2022-09-22T22:59:05.171Z,25.90
2022-09-22T23:04:13.030Z,25.90
2022-09-22T23:09:20.006Z,26.00
2022-09-22T23:14:25.518Z,26.10
2022-09-22T23:19:31.169Z,26.20
2022-09-22T23:24:36.519Z,26.30
2022-09-22T23:29:42.075Z,26.40
2022-09-22T23:34:47.415Z,26.50
2022-09-22T23:39:52.798Z,26.70
2022-09-22T23:44:58.128Z,26.80
2022-09-22T23:50:03.932Z,26.90
2022-09-22T23:55:09.759Z,27.10
